地図

経路データ

SID SEASON NUMBER BASIN SUBBASIN NAME ISO_TIME NATURE LAT LON WMO_WIND WMO_PRES WMO_AGENCY TRACK_TYPE DIST2LAND LANDFALL IFLAG USA_AGENCY USA_ATCF_ID USA_LAT USA_LON USA_RECORD USA_STATUS USA_WIND USA_PRES USA_SSHS USA_R34_NE USA_R34_SE USA_R34_SW USA_R34_NW USA_R50_NE USA_R50_SE USA_R50_SW USA_R50_NW USA_R64_NE USA_R64_SE USA_R64_SW USA_R64_NW USA_POCI USA_ROCI USA_RMW USA_EYE TOKYO_LAT TOKYO_LON TOKYO_GRADE TOKYO_WIND TOKYO_PRES TOKYO_R50_DIR TOKYO_R50_LONG TOKYO_R50_SHORT TOKYO_R30_DIR TOKYO_R30_LONG TOKYO_R30_SHORT TOKYO_LAND CMA_LAT CMA_LON CMA_CAT CMA_WIND CMA_PRES HKO_LAT HKO_LON HKO_CAT HKO_WIND HKO_PRES NEWDELHI_LAT NEWDELHI_LON NEWDELHI_GRADE NEWDELHI_WIND NEWDELHI_PRES NEWDELHI_CI NEWDELHI_DP NEWDELHI_POCI REUNION_LAT REUNION_LON REUNION_TYPE REUNION_WIND REUNION_PRES REUNION_TNUM REUNION_CI REUNION_RMW REUNION_R34_NE REUNION_R34_SE REUNION_R34_SW REUNION_R34_NW REUNION_R50_NE REUNION_R50_SE REUNION_R50_SW REUNION_R50_NW REUNION_R64_NE REUNION_R64_SE REUNION_R64_SW REUNION_R64_NW BOM_LAT BOM_LON BOM_TYPE BOM_WIND BOM_PRES BOM_TNUM BOM_CI BOM_RMW BOM_R34_NE BOM_R34_SE BOM_R34_SW BOM_R34_NW BOM_R50_NE BOM_R50_SE BOM_R50_SW BOM_R50_NW BOM_R64_NE BOM_R64_SE BOM_R64_SW BOM_R64_NW BOM_ROCI BOM_POCI BOM_EYE BOM_POS_METHOD BOM_PRES_METHOD NADI_LAT NADI_LON NADI_CAT NADI_WIND NADI_PRES WELLINGTON_LAT WELLINGTON_LON WELLINGTON_WIND WELLINGTON_PRES DS824_LAT DS824_LON DS824_STAGE DS824_WIND DS824_PRES TD9636_LAT TD9636_LON TD9636_STAGE TD9636_WIND TD9636_PRES TD9635_LAT TD9635_LON TD9635_WIND TD9635_PRES TD9635_ROCI NEUMANN_LAT NEUMANN_LON NEUMANN_CLASS NEUMANN_WIND NEUMANN_PRES MLC_LAT MLC_LON MLC_CLASS MLC_WIND MLC_PRES USA_GUST BOM_GUST BOM_GUST_PER REUNION_GUST REUNION_GUST_PER USA_SEAHGT USA_SEARAD_NE USA_SEARAD_SE USA_SEARAD_SW USA_SEARAD_NW STORM_SPEED STORM_DIR
1959287N14287 1959 95 NA CS JUDITH 1959-10-14 06:00:00 TS 14.0000 -73.5000 30 hurdat_atl main 245 245 O_____________ hurdat_atl AL111959 14.0000 -73.5000 TD 30 -1 18 270
1959287N14287 1959 95 NA CS JUDITH 1959-10-14 09:00:00 TS 14.0031 -74.4050 main 310 310 P_____________ AL111959 14.0031 -74.4050 TD 32 -1 17 270
1959287N14287 1959 95 NA CS JUDITH 1959-10-14 12:00:00 TS 14.0000 -75.3000 35 hurdat_atl main 335 335 O_____________ hurdat_atl AL111959 14.0000 -75.3000 TS 35 0 17 270
1959287N14287 1959 95 NA CS JUDITH 1959-10-14 15:00:00 TS 13.9923 -76.1726 main 364 364 P_____________ AL111959 13.9923 -76.1726 TS 37 0 17 270
1959287N14287 1959 95 NA CS JUDITH 1959-10-14 18:00:00 TS 14.0000 -77.0000 40 hurdat_atl main 403 403 O_____________ hurdat_atl AL111959 14.0000 -77.0000 TS 40 0 16 272
1959287N14287 1959 95 NA CS JUDITH 1959-10-14 21:00:00 TS 14.0348 -77.7875 main 419 411 P_____________ AL111959 14.0348 -77.7875 TS 40 0 15 274
1959287N14287 1959 95 NA CS JUDITH 1959-10-15 00:00:00 TS 14.1000 -78.5000 40 hurdat_atl main 426 426 O_____________ hurdat_atl AL111959 14.1000 -78.5000 TS 40 0 13 277
1959287N14287 1959 95 NA CS JUDITH 1959-10-15 03:00:00 TS 14.1848 -79.1375 main 439 374 P_____________ AL111959 14.1848 -79.1375 TS 37 0 12 280
1959287N14287 1959 95 NA CS JUDITH 1959-10-15 06:00:00 TS 14.3000 -79.7000 35 hurdat_atl main 374 319 O_____________ hurdat_atl AL111959 14.3000 -79.7000 TS 35 0 11 283
1959287N14287 1959 95 NA CS JUDITH 1959-10-15 09:00:00 TS 14.4349 -80.2300 main 319 261 P_____________ AL111959 14.4349 -80.2300 TS 32 -1 10 287
1959287N14287 1959 95 NA CS JUDITH 1959-10-15 12:00:00 TS 14.6000 -80.7000 30 hurdat_atl main 261 216 O_____________ hurdat_atl AL111959 14.6000 -80.7000 TD 30 -1 9 292
1959287N14287 1959 95 NA CS JUDITH 1959-10-15 15:00:00 TS 14.7774 -81.1226 main 216 171 P_____________ AL111959 14.7774 -81.1226 TD 27 -1 9 297
1959287N14287 1959 95 NA CS JUDITH 1959-10-15 18:00:00 TS 15.0000 -81.5000 25 hurdat_atl main 171 141 O_____________ hurdat_atl AL111959 15.0000 -81.5000 TD 25 -1 9 305
1959287N14287 1959 95 NA CS JUDITH 1959-10-15 21:00:00 TS 15.2699 -81.8576 main 133 117 P_____________ AL111959 15.2699 -81.8576 TD 25 -1 9 312
1959287N14287 1959 95 NA CS JUDITH 1959-10-16 00:00:00 NR 15.6000 -82.2000 25 hurdat_atl main 117 116 O_____________ hurdat_atl AL111959 15.6000 -82.2000 DB 25 -3 10 316
1959287N14287 1959 95 NA CS JUDITH 1959-10-16 03:00:00 NR 15.9699 -82.5501 main 116 116 P_____________ AL111959 15.9699 -82.5501 DB 25 -3 11 320
1959287N14287 1959 95 NA CS JUDITH 1959-10-16 06:00:00 NR 16.4000 -82.9000 25 hurdat_atl main 134 134 O_____________ hurdat_atl AL111959 16.4000 -82.9000 DB 25 -3 11 323
1959287N14287 1959 95 NA CS JUDITH 1959-10-16 09:00:00 NR 16.8699 -83.2502 main 162 162 P_____________ AL111959 16.8699 -83.2502 DB 25 -3 12 326
1959287N14287 1959 95 NA CS JUDITH 1959-10-16 12:00:00 NR 17.4000 -83.6000 25 hurdat_atl main 193 193 O_____________ hurdat_atl AL111959 17.4000 -83.6000 DB 25 -3 13 329
1959287N14287 1959 95 NA CS JUDITH 1959-10-16 15:00:00 NR 17.9850 -83.9650 main 246 246 P_____________ AL111959 17.9850 -83.9650 DB 25 -3 14 331
1959287N14287 1959 95 NA CS JUDITH 1959-10-16 18:00:00 NR 18.6000 -84.3000 25 hurdat_atl main 305 290 O_____________ hurdat_atl AL111959 18.6000 -84.3000 DB 25 -3 14 334
1959287N14287 1959 95 NA CS JUDITH 1959-10-16 21:00:00 NR 19.1999 -84.5802 main 290 223 P_____________ AL111959 19.1999 -84.5802 DB 25 -3 13 339
1959287N14287 1959 95 NA CS JUDITH 1959-10-17 00:00:00 NR 19.8000 -84.8000 25 hurdat_atl main 223 157 O_____________ hurdat_atl AL111959 19.8000 -84.8000 DB 25 -3 13 342
1959287N14287 1959 95 NA CS JUDITH 1959-10-17 03:00:00 NR 20.3925 -84.9875 main 157 94 P_____________ AL111959 20.3925 -84.9875 DB 25 -3 12 347
1959287N14287 1959 95 NA CS JUDITH 1959-10-17 06:00:00 NR 21.0000 -85.1000 25 hurdat_atl main 94 39 O_____________ hurdat_atl AL111959 21.0000 -85.1000 DB 25 -3 13 352
1959287N14287 1959 95 NA CS JUDITH 1959-10-17 09:00:00 NR 21.6274 -85.1671 main 39 15 P_____________ AL111959 21.6274 -85.1671 DB 27 -3 13 1
1959287N14287 1959 95 NA GM JUDITH 1959-10-17 12:00:00 TS 22.3000 -85.1000 30 hurdat_atl main 45 45 O_____________ hurdat_atl AL111959 22.3000 -85.1000 TD 30 -1 15 12
1959287N14287 1959 95 NA GM JUDITH 1959-10-17 15:00:00 TS 23.0576 -84.8382 main 90 90 P_____________ AL111959 23.0576 -84.8382 TD 35 0 16 20
1959287N14287 1959 95 NA GM JUDITH 1959-10-17 18:00:00 TS 23.8000 -84.5000 40 hurdat_atl main 133 133 O_____________ hurdat_atl AL111959 23.8000 -84.5000 TS 40 0 15 21
1959287N14287 1959 95 NA GM JUDITH 1959-10-17 21:00:00 TS 24.4374 -84.2495 main 185 185 P_____________ AL111959 24.4374 -84.2495 TS 47 0 13 21
1959287N14287 1959 95 NA GM JUDITH 1959-10-18 00:00:00 TS 25.0000 -84.0000 55 hurdat_atl main 242 201 O_____________ hurdat_atl AL111959 25.0000 -84.0000 TS 55 0 12 23
1959287N14287 1959 95 NA GM JUDITH 1959-10-18 03:00:00 TS 25.5373 -83.7297 main 201 141 P_____________ AL111959 25.5373 -83.7297 TS 55 0 11 28
1959287N14287 1959 95 NA GM JUDITH 1959-10-18 06:00:00 TS 26.0000 -83.4000 55 hurdat_atl main 141 82 O_____________ hurdat_atl AL111959 26.0000 -83.4000 TS 55 0 12 38
1959287N14287 1959 95 NA GM JUDITH 1959-10-18 09:00:00 TS 26.4511 -82.9349 main 68 22 P_____________ AL111959 26.4511 -82.9349 TS 55 0 11 49
1959287N14287 1959 95 NA GM JUDITH 1959-10-18 12:00:00 TS 26.7000 -82.5000 55 998 hurdat_atl main 22 11 O_____________ hurdat_atl AL111959 26.7000 -82.5000 TS 55 998 0 7 66
1959287N14287 1959 95 NA GM JUDITH 1959-10-18 14:00:00 TS 26.7000 -82.3000 55 998 hurdat_atl main 11 0 O_____________ hurdat_atl AL111959 26.7000 -82.3000 L TS 55 998 0 9 84
1959287N14287 1959 95 NA NA JUDITH 1959-10-18 15:00:00 TS 26.7442 -82.0014 main 0 0 P_____________ AL111959 26.7442 -82.0014 TS 52 998 0 25 79
1959287N14287 1959 95 NA NA JUDITH 1959-10-18 18:00:00 TS 27.0000 -80.5000 45 1001 hurdat_atl main 0 0 O_____________ hurdat_atl AL111959 27.0000 -80.5000 TS 45 1001 0 28 80
1959287N14287 1959 95 NA NA JUDITH 1959-10-18 21:00:00 TS 27.2090 -78.9236 main 117 117 P_____________ AL111959 27.2090 -78.9236 TS 50 999 0 30 80
1959287N14287 1959 95 NA NA JUDITH 1959-10-19 00:00:00 TS 27.5000 -77.2000 55 hurdat_atl main 279 279 I_____________ hurdat_atl AL111959 27.5000 -77.2000 TS 55 997 0 32 77
1959287N14287 1959 95 NA NA JUDITH 1959-10-19 03:00:00 TS 27.9536 -75.4223 main 414 414 P_____________ AL111959 27.9536 -75.4223 TS 60 995 0 33 73
1959287N14287 1959 95 NA NA JUDITH 1959-10-19 06:00:00 TS 28.5000 -73.6000 65 993 hurdat_atl main 578 578 O_____________ hurdat_atl AL111959 28.5000 -73.6000 HU 65 993 1 34 71
1959287N14287 1959 95 NA NA JUDITH 1959-10-19 09:00:00 TS 29.0545 -71.8140 main 758 758 P_____________ AL111959 29.0545 -71.8140 HU 70 990 1 33 71
1959287N14287 1959 95 NA NA JUDITH 1959-10-19 12:00:00 TS 29.6000 -70.0000 75 988 hurdat_atl main 834 834 O_____________ hurdat_atl AL111959 29.6000 -70.0000 HU 75 988 1 34 72
1959287N14287 1959 95 NA NA JUDITH 1959-10-19 15:00:00 TS 30.0935 -68.0996 main 935 935 P_____________ AL111959 30.0935 -68.0996 HU 75 1 34 75
1959287N14287 1959 95 NA NA JUDITH 1959-10-19 18:00:00 TS 30.5000 -66.2000 75 hurdat_atl main 1046 1046 O_____________ hurdat_atl AL111959 30.5000 -66.2000 HU 75 1 33 77
1959287N14287 1959 95 NA NA JUDITH 1959-10-19 21:00:00 TS 30.8158 -64.3472 main 1177 1177 P_____________ AL111959 30.8158 -64.3472 HU 72 1 31 81
1959287N14287 1959 95 NA NA JUDITH 1959-10-20 00:00:00 TS 31.0000 -62.6000 70 hurdat_atl main 1308 1308 O_____________ hurdat_atl AL111959 31.0000 -62.6000 HU 70 1 29 86
1959287N14287 1959 95 NA NA JUDITH 1959-10-20 03:00:00 TS 31.0367 -60.9283 main 1440 1440 P_____________ AL111959 31.0367 -60.9283 HU 70 1 27 90
1959287N14287 1959 95 NA NA JUDITH 1959-10-20 06:00:00 TS 31.0000 -59.5000 70 hurdat_atl main 1482 1482 O_____________ hurdat_atl AL111959 31.0000 -59.5000 HU 70 1 22 91
1959287N14287 1959 95 NA NA JUDITH 1959-10-20 09:00:00 TS 30.9908 -58.3426 main 1521 1521 P_____________ AL111959 30.9908 -58.3426 HU 70 1 17 90
1959287N14287 1959 95 NA NA JUDITH 1959-10-20 12:00:00 TS 31.0000 -57.5000 70 hurdat_atl main 1551 1551 O_____________ hurdat_atl AL111959 31.0000 -57.5000 HU 70 1 12 88
1959287N14287 1959 95 NA NA JUDITH 1959-10-20 15:00:00 TS 31.0338 -56.9100 main 1575 1569 P_____________ AL111959 31.0338 -56.9100 HU 70 1 9 83
1959287N14287 1959 95 NA NA JUDITH 1959-10-20 18:00:00 TS 31.1000 -56.5000 70 hurdat_atl main 1582 1582 O_____________ hurdat_atl AL111959 31.1000 -56.5000 HU 70 1 7 78
1959287N14287 1959 95 NA NA JUDITH 1959-10-20 21:00:00 TS 31.1924 -56.0551 main 1589 1589 P_____________ AL111959 31.1924 -56.0551 HU 65 1 7 74
1959287N14287 1959 95 NA NA JUDITH 1959-10-21 00:00:00 TS 31.3000 -55.7000 60 hurdat_atl main 1597 1592 O_____________ hurdat_atl AL111959 31.3000 -55.7000 TS 60 0 5 68
1959287N14287 1959 95 NA NA JUDITH 1959-10-21 03:00:00 TS 31.3998 -55.4624 main 1597 1592 P_____________ AL111959 31.3998 -55.4624 TS 57 0 4 60
1959287N14287 1959 95 NA NA JUDITH 1959-10-21 06:00:00 TS 31.5000 -55.3000 55 hurdat_atl main 1597 1592 O_____________ hurdat_atl AL111959 31.5000 -55.3000 TS 55 0 3 54
1959287N14287 1959 95 NA NA JUDITH 1959-10-21 09:00:00 TS 31.6075 -55.1350 main 1597 1587 P_____________ AL111959 31.6075 -55.1350 TS 52 0 3 52
1959287N14287 1959 95 NA NA JUDITH 1959-10-21 12:00:00 TS 31.7000 -55.0000 50 hurdat_atl main 1592 1592 O_____________ hurdat_atl AL111959 31.7000 -55.0000 TS 50 0 2 50
1959287N14287 1959 95 NA NA JUDITH 1959-10-21 15:00:00 TS 31.7498 -54.9373 main 1595 1584 P_____________ AL111959 31.7498 -54.9373 TS 45 0 2 59
1959287N14287 1959 95 NA NA JUDITH 1959-10-21 18:00:00 TS 31.8000 -54.8000 40 hurdat_atl main 1587 1580 O_____________ hurdat_atl AL111959 31.8000 -54.8000 TS 40 0 4 67
1959287N14287 1959 95 NA NA JUDITH 1959-10-21 21:00:00 TS 31.9070 -54.4977 main 1586 1581 P_____________ AL111959 31.9070 -54.4977 TS 37 0 7 74
1959287N14287 1959 95 NA NA JUDITH 1959-10-22 00:00:00 TS 32.0000 -54.0000 35 hurdat_atl main 1591 1591 O_____________ hurdat_atl AL111959 32.0000 -54.0000 TS 35 0 10 83
1959287N14287 1959 95 NA NA JUDITH 1959-10-22 03:00:00 TS 32.0239 -53.3047 main 1615 1615 P_____________ AL111959 32.0239 -53.3047 TS 32 -1 13 90
1959287N14287 1959 95 NA NA JUDITH 1959-10-22 06:00:00 TS 32.0000 -52.5000 30 hurdat_atl main 1626 O_____________ hurdat_atl AL111959 32.0000 -52.5000 TD 30 -1 14 92

IBTrACS Databaseについて

本データベースは、米国NOAAが公開する1842年以降の世界の熱帯低気圧のベストトラックデータアーカイブInternational Best Track Archive for Climate Stewardship (IBTrACS)を、ウェブで閲覧しやすい形式に変換したものです。

最終更新日:2021-12-08